Time;durP1;ratioP1;P1;durP2;ratioP2;P2;SDS_P1;SDS_P2;PMS_P1;PMS_P2;Temp;Humidity;BMP_temperature;BMP_pressure;BME280_temperature;BME280_humidity;BME280_pressure;Samples;Min_cycle;Max_cycle;Signal;HPM_P1;HPM_P2
2023/10/06 00:00:53;;;;;;;;;;;7.90;99.90;;;;;;5110839;28;19920;-74
2023/10/06 00:03:21;;;;;;;;;;;7.80;99.90;;;;;;5117434;28;19943;-74
2023/10/06 00:05:49;;;;;;;;;;;7.80;99.90;;;;;;5110754;28;19958;-73
2023/10/06 00:08:17;;;;;;;;;;;7.80;99.90;;;;;;5109928;28;19919;-74
2023/10/06 00:10:45;;;;;;;;;;;7.70;99.90;;;;;;5111323;28;19924;-74
2023/10/06 00:13:13;;;;;;;;;;;7.70;99.90;;;;;;5112256;28;19955;-74
2023/10/06 00:15:40;;;;;;;;;;;7.60;99.90;;;;;;5111856;28;20151;-74
2023/10/06 00:18:09;;;;;;;;;;;7.60;99.90;;;;;;5116043;28;19969;-74
2023/10/06 00:20:45;;;;;;;;;;;7.60;99.90;;;;;;5110886;28;19926;-74
2023/10/06 00:23:14;;;;;;;;;;;7.50;99.90;;;;;;5105868;28;19920;-74
2023/10/06 00:25:43;;;;;;;;;;;7.50;99.90;;;;;;5117962;28;19920;-74
2023/10/06 00:28:17;;;;;;;;;;;7.50;99.90;;;;;;5109886;28;19926;-74
2023/10/06 00:30:45;;;;;;;;;;;7.40;99.90;;;;;;5117524;28;19920;-74
2023/10/06 00:33:13;;;;;;;;;;;7.40;99.90;;;;;;5119607;28;19927;-74
2023/10/06 00:35:41;;;;;;;;;;;7.40;99.90;;;;;;5109835;28;19965;-74
2023/10/06 00:38:16;;;;;;;;;;;7.40;99.90;;;;;;5110332;28;19958;-74
2023/10/06 00:40:46;;;;;;;;;;;7.40;99.90;;;;;;5111426;28;19919;-74
2023/10/06 00:43:16;;;;;;;;;;;7.40;99.90;;;;;;5119333;28;19927;-74
2023/10/06 00:45:44;;;;;;;;;;;7.40;99.90;;;;;;5104694;28;20256;-74
2023/10/06 00:48:14;;;;;;;;;;;7.30;99.90;;;;;;5111383;28;19977;-75
2023/10/06 00:50:43;;;;;;;;;;;7.30;99.90;;;;;;5111461;28;19920;-74
2023/10/06 00:53:13;;;;;;;;;;;7.30;99.90;;;;;;5110836;28;19919;-74
2023/10/06 00:55:40;;;;;;;;;;;7.30;99.90;;;;;;5114258;28;19924;-74
2023/10/06 00:58:10;;;;;;;;;;;7.30;99.90;;;;;;5112101;28;19921;-74
2023/10/06 01:00:37;;;;;;;;;;;7.30;99.90;;;;;;5108512;28;20236;-74
2023/10/06 05:46:51;;;;;;;;;;;5.50;99.90;;;;;;5075309;28;19994;-90
2023/10/06 05:49:21;;;;;;;;;;;5.50;99.90;;;;;;5078377;28;19921;-90
2023/10/06 05:51:49;;;;;;;;;;;5.50;99.90;;;;;;5078948;28;19947;-90
2023/10/06 05:54:21;;;;;;;;;;;5.50;99.90;;;;;;5077284;28;19951;-90
2023/10/06 05:56:52;;;;;;;;;;;5.40;99.90;;;;;;5077848;28;20176;-90
2023/10/06 05:59:19;;;;;;;;;;;5.50;99.90;;;;;;5080563;28;19936;-90
2023/10/06 06:01:55;;;;;;;;;;;5.50;99.90;;;;;;5081834;28;19943;-90
2023/10/06 06:04:27;;;;;;;;;;;5.50;99.90;;;;;;5080140;28;19966;-90
2023/10/06 06:06:56;;;;;;;;;;;5.50;99.90;;;;;;5083821;28;19928;-90
2023/10/06 06:09:23;;;;;;;;;;;5.50;99.90;;;;;;5083570;28;19920;-90
2023/10/06 06:11:49;;;;;;;;;;;5.50;99.90;;;;;;5080447;28;19978;-90
2023/10/06 06:14:20;;;;;;;;;;;5.60;99.90;;;;;;5083087;28;20268;-90
2023/10/06 06:16:47;;;;;;;;;;;5.50;99.90;;;;;;5083891;28;20279;-89
2023/10/06 06:19:13;;;;;;;;;;;5.60;99.90;;;;;;5079068;28;19987;-90
2023/10/06 06:21:42;;;;;;;;;;;5.50;99.90;;;;;;5075935;28;20233;-91
2023/10/06 06:24:09;;;;;;;;;;;5.60;99.90;;;;;;5071585;28;19924;-90
2023/10/06 06:26:36;;;;;;;;;;;5.50;99.90;;;;;;5079213;28;20177;-90
2023/10/06 06:29:03;;;;;;;;;;;5.50;99.90;;;;;;5075007;28;19935;-90
2023/10/06 06:31:32;;;;;;;;;;;5.50;99.90;;;;;;5084337;28;19927;-90
2023/10/06 06:33:59;;;;;;;;;;;5.50;99.90;;;;;;5085382;28;19947;-90
2023/10/06 06:36:26;;;;;;;;;;;5.50;99.90;;;;;;5083304;28;19988;-90
2023/10/06 06:38:55;;;;;;;;;;;5.50;99.90;;;;;;5081800;28;20321;-90
2023/10/06 06:41:22;;;;;;;;;;;5.60;99.90;;;;;;5083981;28;19948;-90
2023/10/06 06:43:49;;;;;;;;;;;5.60;99.90;;;;;;5094292;28;19920;-90
2023/10/06 06:46:17;;;;;;;;;;;5.70;99.90;;;;;;5098041;28;19921;-90
2023/10/06 06:48:46;;;;;;;;;;;5.70;99.90;;;;;;5078007;28;19920;-90
2023/10/06 06:51:13;;;;;;;;;;;5.70;99.90;;;;;;5079796;28;19958;-90
2023/10/06 06:53:40;;;;;;;;;;;5.80;99.90;;;;;;5078345;28;19921;-90
2023/10/06 06:56:10;;;;;;;;;;;5.80;99.90;;;;;;5095607;28;20176;-90
2023/10/06 06:58:37;;;;;;;;;;;5.90;99.90;;;;;;5083961;28;19925;-90
2023/10/06 07:01:05;;;;;;;;;;;5.90;99.90;;;;;;5080407;28;19991;-90
2023/10/06 07:03:32;;;;;;;;;;;6.00;99.90;;;;;;5081675;28;19921;-90
2023/10/06 07:05:59;;;;;;;;;;;6.10;99.90;;;;;;5078756;28;19921;-90
2023/10/06 07:08:27;;;;;;;;;;;6.10;99.90;;;;;;5078279;28;20169;-90
2023/10/06 07:10:54;;;;;;;;;;;6.20;99.90;;;;;;5075217;28;19920;-90
2023/10/06 07:13:23;;;;;;;;;;;6.20;99.90;;;;;;5083667;28;20221;-90
2023/10/06 07:15:50;;;;;;;;;;;6.30;99.90;;;;;;5079523;28;19921;-90
2023/10/06 07:18:19;;;;;;;;;;;6.40;99.90;;;;;;5083166;28;19920;-90
2023/10/06 07:20:47;;;;;;;;;;;6.50;99.90;;;;;;5076639;28;19926;-90
2023/10/06 07:23:14;;;;;;;;;;;6.50;99.90;;;;;;5079774;28;19967;-89
2023/10/06 07:25:41;;;;;;;;;;;6.60;99.90;;;;;;5082746;28;19955;-89
2023/10/06 07:28:10;;;;;;;;;;;6.60;99.90;;;;;;5087770;28;19920;-90
2023/10/06 07:30:38;;;;;;;;;;;6.70;99.90;;;;;;5077058;28;19921;-90
2023/10/06 07:33:05;;;;;;;;;;;6.80;99.90;;;;;;5079053;28;20252;-90
2023/10/06 07:35:40;;;;;;;;;;;6.90;99.90;;;;;;5077424;28;19928;-90
2023/10/06 07:38:08;;;;;;;;;;;7.00;99.90;;;;;;5077555;28;19921;-90
2023/10/06 07:40:34;;;;;;;;;;;7.10;99.90;;;;;;5079621;28;20217;-90
2023/10/06 07:43:04;;;;;;;;;;;7.20;99.90;;;;;;5079333;28;20004;-90
2023/10/06 07:45:32;;;;;;;;;;;7.30;99.90;;;;;;5079287;28;19958;-90
2023/10/06 07:48:00;;;;;;;;;;;7.40;99.90;;;;;;5082408;28;19983;-89
2023/10/06 07:50:28;;;;;;;;;;;7.50;99.90;;;;;;5078147;28;19958;-90
2023/10/06 07:52:56;;;;;;;;;;;7.60;99.90;;;;;;5077408;28;19960;-90
2023/10/06 07:55:23;;;;;;;;;;;7.70;99.90;;;;;;5077655;28;19920;-90
2023/10/06 07:57:51;;;;;;;;;;;7.80;99.90;;;;;;5083054;28;19928;-90
2023/10/06 08:00:27;;;;;;;;;;;7.90;99.90;;;;;;5087205;28;19919;-90
2023/10/06 08:02:54;;;;;;;;;;;8.10;99.90;;;;;;5077035;28;19920;-90
2023/10/06 08:05:22;;;;;;;;;;;8.30;99.90;;;;;;5077231;28;19921;-89
2023/10/06 08:07:48;;;;;;;;;;;8.40;99.90;;;;;;5075014;28;19921;-89
2023/10/06 08:10:16;;;;;;;;;;;8.60;99.90;;;;;;5076532;28;19987;-89
2023/10/06 08:12:44;;;;;;;;;;;8.70;99.90;;;;;;5075586;28;19990;-89
2023/10/06 08:15:11;;;;;;;;;;;8.80;99.90;;;;;;5080197;28;19921;-90
2023/10/06 08:17:38;;;;;;;;;;;8.90;99.90;;;;;;5084061;28;20066;-89
2023/10/06 08:20:06;;;;;;;;;;;9.00;99.90;;;;;;5078897;28;19927;-90
2023/10/06 08:22:34;;;;;;;;;;;9.20;99.90;;;;;;5079889;28;19988;-90
2023/10/06 08:25:01;;;;;;;;;;;9.30;99.90;;;;;;5082607;28;19979;-90
2023/10/06 08:27:28;;;;;;;;;;;9.50;99.90;;;;;;5079726;28;20156;-90
2023/10/06 08:29:54;;;;;;;;;;;9.70;99.90;;;;;;5074514;28;19920;-90
2023/10/06 08:32:21;;;;;;;;;;;9.80;99.90;;;;;;5072663;28;19991;-89
2023/10/06 08:34:48;;;;;;;;;;;9.90;99.90;;;;;;5078545;28;19921;-89
2023/10/06 08:37:15;;;;;;;;;;;10.10;99.90;;;;;;5079197;28;19943;-89
2023/10/06 08:39:46;;;;;;;;;;;10.20;99.90;;;;;;5078265;28;19944;-90
2023/10/06 08:42:15;;;;;;;;;;;10.40;99.90;;;;;;5075628;28;19936;-89
2023/10/06 08:44:42;;;;;;;;;;;10.60;99.90;;;;;;5074855;28;20189;-90
2023/10/06 08:47:10;;;;;;;;;;;10.70;99.90;;;;;;5071440;28;19924;-89
2023/10/06 08:49:38;;;;;;;;;;;10.90;99.90;;;;;;5073842;28;20209;-90
2023/10/06 08:52:06;;;;;;;;;;;11.00;99.90;;;;;;5071521;28;19928;-89
2023/10/06 08:54:33;;;;;;;;;;;11.20;99.90;;;;;;5072836;28;20210;-90
2023/10/06 08:57:03;;;;;;;;;;;11.30;99.90;;;;;;5072446;28;19925;-90
2023/10/06 08:59:31;;;;;;;;;;;11.40;99.90;;;;;;5077758;28;20213;-89
2023/10/06 09:01:59;;;;;;;;;;;11.50;99.90;;;;;;5076590;28;19959;-90
2023/10/06 09:04:27;;;;;;;;;;;11.60;99.90;;;;;;5076501;28;19920;-90
2023/10/06 09:07:06;;;;;;;;;;;11.70;99.90;;;;;;5075012;28;19948;-90
2023/10/06 09:09:33;;;;;;;;;;;11.90;99.90;;;;;;5079237;28;19921;-89
2023/10/06 09:12:01;;;;;;;;;;;11.90;99.90;;;;;;5079820;28;19927;-89
2023/10/06 09:14:28;;;;;;;;;;;12.10;99.90;;;;;;5076721;28;20217;-90
2023/10/06 09:16:57;;;;;;;;;;;12.20;99.90;;;;;;5077805;28;20156;-89
2023/10/06 09:19:24;;;;;;;;;;;12.20;99.90;;;;;;5080933;28;19983;-90
2023/10/06 09:22:00;;;;;;;;;;;12.40;99.90;;;;;;5081143;28;19928;-90
2023/10/06 09:24:27;;;;;;;;;;;12.50;99.90;;;;;;5076575;28;19921;-90
2023/10/06 09:26:55;;;;;;;;;;;12.60;99.90;;;;;;5075923;28;19983;-90
2023/10/06 09:29:32;;;;;;;;;;;12.80;99.90;;;;;;5072491;28;19921;-90
2023/10/06 09:32:00;;;;;;;;;;;12.80;99.90;;;;;;5071997;28;20129;-90
2023/10/06 09:34:27;;;;;;;;;;;12.80;99.90;;;;;;5072414;28;19989;-90
2023/10/06 09:36:54;;;;;;;;;;;12.90;99.90;;;;;;5080182;28;19920;-90
2023/10/06 09:39:29;;;;;;;;;;;13.00;99.90;;;;;;5078092;28;19930;-90
2023/10/06 09:41:57;;;;;;;;;;;13.20;99.90;;;;;;5072199;28;19992;-90
2023/10/06 09:44:26;;;;;;;;;;;13.30;99.90;;;;;;5070645;28;19984;-89
2023/10/06 09:46:54;;;;;;;;;;;13.40;99.90;;;;;;5075559;28;20229;-90
2023/10/06 09:49:22;;;;;;;;;;;13.50;99.90;;;;;;5076592;28;19940;-90
2023/10/06 09:51:51;;;;;;;;;;;13.60;99.90;;;;;;5074129;28;19920;-90
2023/10/06 09:54:19;;;;;;;;;;;13.70;99.90;;;;;;5078288;28;19951;-89
2023/10/06 09:56:47;;;;;;;;;;;13.70;99.90;;;;;;5075652;28;19924;-90
2023/10/06 09:59:15;;;;;;;;;;;13.90;99.90;;;;;;5074147;28;19925;-90
2023/10/06 10:01:45;;;;;;;;;;;14.10;99.90;;;;;;5078639;28;19921;-90
2023/10/06 10:04:14;;;;;;;;;;;14.20;99.90;;;;;;5074929;28;19967;-90
2023/10/06 10:06:43;;;;;;;;;;;14.30;99.90;;;;;;5079039;28;20276;-89
2023/10/06 10:09:15;;;;;;;;;;;14.40;99.90;;;;;;5077042;28;19920;-89
2023/10/06 10:11:44;;;;;;;;;;;14.50;99.90;;;;;;5075712;28;19948;-90
2023/10/06 10:14:29;;;;;;;;;;;14.70;99.90;;;;;;5069788;28;19952;-89
2023/10/06 10:17:07;;;;;;;;;;;14.80;99.90;;;;;;5086756;28;19983;-90
2023/10/06 10:19:36;;;;;;;;;;;14.90;99.90;;;;;;5076441;28;19920;-90
2023/10/06 10:22:04;;;;;;;;;;;15.10;99.90;;;;;;5076896;28;20303;-90
2023/10/06 10:24:34;;;;;;;;;;;15.30;99.90;;;;;;5076791;28;19983;-90
2023/10/06 10:27:12;;;;;;;;;;;15.50;99.90;;;;;;5070976;28;19995;-90
2023/10/06 10:29:41;;;;;;;;;;;15.60;99.90;;;;;;5072459;28;22224;-90
2023/10/06 10:32:12;;;;;;;;;;;15.70;99.90;;;;;;5075087;28;19943;-90
2023/10/06 10:34:53;;;;;;;;;;;15.90;99.90;;;;;;5077806;28;19951;-89
2023/10/06 10:37:23;;;;;;;;;;;16.10;99.90;;;;;;5069469;28;19991;-89
2023/10/06 10:39:51;;;;;;;;;;;16.20;99.90;;;;;;5073575;28;19987;-89
2023/10/06 10:42:21;;;;;;;;;;;16.30;99.90;;;;;;5076461;28;19929;-89
2023/10/06 10:44:48;;;;;;;;;;;16.30;99.90;;;;;;5076985;28;19927;-89
2023/10/06 10:47:15;;;;;;;;;;;16.40;99.90;;;;;;5076671;28;20209;-89
2023/10/06 10:49:44;;;;;;;;;;;16.50;99.90;;;;;;5076678;28;19932;-90
2023/10/06 10:52:11;;;;;;;;;;;16.70;99.90;;;;;;5070355;28;19924;-89
2023/10/06 10:54:40;;;;;;;;;;;16.80;99.90;;;;;;5077818;28;19988;-89
2023/10/06 10:57:09;;;;;;;;;;;16.90;99.90;;;;;;5073377;28;19927;-89
2023/10/06 10:59:53;;;;;;;;;;;17.00;99.90;;;;;;5075630;28;20113;-89
2023/10/06 11:02:20;;;;;;;;;;;17.10;99.90;;;;;;5076736;28;19920;-90
2023/10/06 11:04:48;;;;;;;;;;;17.10;99.90;;;;;;5073577;28;20221;-89
2023/10/06 11:07:16;;;;;;;;;;;17.20;99.90;;;;;;5076553;28;19920;-90
2023/10/06 11:09:48;;;;;;;;;;;17.30;99.90;;;;;;5073670;28;19921;-89
2023/10/06 11:12:22;;;;;;;;;;;17.30;99.90;;;;;;5084092;28;19920;-89
2023/10/06 11:14:51;;;;;;;;;;;17.30;99.90;;;;;;5075236;28;20127;-89
2023/10/06 11:17:21;;;;;;;;;;;17.40;99.90;;;;;;5084619;28;19920;-89
2023/10/06 11:19:58;;;;;;;;;;;17.40;99.90;;;;;;5073628;28;19948;-89
2023/10/06 11:22:27;;;;;;;;;;;17.50;99.90;;;;;;5074943;28;19984;-89
2023/10/06 11:24:57;;;;;;;;;;;17.70;99.90;;;;;;5077015;28;19920;-89
2023/10/06 11:27:24;;;;;;;;;;;17.70;99.90;;;;;;5076946;28;19951;-89
2023/10/06 11:29:51;;;;;;;;;;;17.80;99.90;;;;;;5073998;28;19984;-89
2023/10/06 11:32:18;;;;;;;;;;;17.90;99.90;;;;;;5079959;28;19920;-89
2023/10/06 11:34:45;;;;;;;;;;;17.90;99.90;;;;;;5076308;28;19984;-89
2023/10/06 11:37:12;;;;;;;;;;;17.90;99.90;;;;;;5073070;28;19971;-89
2023/10/06 11:39:39;;;;;;;;;;;18.00;99.90;;;;;;5080902;28;19928;-89
2023/10/06 11:42:25;;;;;;;;;;;18.00;99.90;;;;;;5079197;28;19921;-89
2023/10/06 11:44:53;;;;;;;;;;;18.10;99.90;;;;;;5076886;28;20209;-89
2023/10/06 11:47:21;;;;;;;;;;;18.10;99.90;;;;;;5080904;28;19983;-88
2023/10/06 11:49:54;;;;;;;;;;;18.20;99.90;;;;;;5079438;28;19921;-89
2023/10/06 11:52:20;;;;;;;;;;;18.30;99.90;;;;;;5077486;28;19921;-89
2023/10/06 11:54:47;;;;;;;;;;;18.40;99.90;;;;;;5075418;28;19927;-89
2023/10/06 11:57:15;;;;;;;;;;;18.50;99.90;;;;;;5076644;28;19984;-89
2023/10/06 11:59:48;;;;;;;;;;;18.60;99.90;;;;;;5076051;28;20275;-89
2023/10/06 12:02:16;;;;;;;;;;;18.80;99.90;;;;;;5077546;28;20110;-89
2023/10/06 12:04:43;;;;;;;;;;;19.00;99.90;;;;;;5084280;28;19920;-89
2023/10/06 12:07:20;;;;;;;;;;;19.10;99.90;;;;;;5085497;28;19951;-89
2023/10/06 12:09:48;;;;;;;;;;;19.20;99.90;;;;;;5076723;28;19947;-89
2023/10/06 12:12:16;;;;;;;;;;;19.30;99.90;;;;;;5079081;28;19959;-89
2023/10/06 12:14:43;;;;;;;;;;;19.40;99.90;;;;;;5075801;28;19920;-88
2023/10/06 12:17:11;;;;;;;;;;;19.50;99.90;;;;;;5082357;28;19920;-88
2023/10/06 12:19:42;;;;;;;;;;;19.60;99.90;;;;;;5076128;28;19921;-89
2023/10/06 12:22:08;;;;;;;;;;;19.90;99.90;;;;;;5076515;28;19966;-88
2023/10/06 12:24:35;;;;;;;;;;;19.90;99.90;;;;;;5075697;28;20316;-89
2023/10/06 12:27:02;;;;;;;;;;;20.00;99.90;;;;;;5076050;28;20193;-89
2023/10/06 12:29:31;;;;;;;;;;;20.10;99.90;;;;;;5077735;28;20229;-89
2023/10/06 12:31:58;;;;;;;;;;;20.30;99.90;;;;;;5073932;28;19991;-89
2023/10/06 12:34:27;;;;;;;;;;;20.40;99.90;;;;;;5073049;28;19936;-89
2023/10/06 12:37:01;;;;;;;;;;;20.50;99.90;;;;;;5079332;28;19920;-88
2023/10/06 12:39:34;;;;;;;;;;;20.70;99.90;;;;;;5079677;28;19920;-89
2023/10/06 12:42:00;;;;;;;;;;;20.80;99.90;;;;;;5080833;28;19927;-89
2023/10/06 12:44:27;;;;;;;;;;;20.90;99.90;;;;;;5073700;28;19984;-89
2023/10/06 12:46:55;;;;;;;;;;;21.20;99.90;;;;;;5075367;28;19927;-89
2023/10/06 12:49:23;;;;;;;;;;;21.40;99.90;;;;;;5074045;28;19921;-88
2023/10/06 12:51:50;;;;;;;;;;;21.50;99.90;;;;;;5082197;28;20156;-89
2023/10/06 12:54:19;;;;;;;;;;;21.60;99.90;;;;;;5073724;28;19989;-88
2023/10/06 12:56:49;;;;;;;;;;;21.40;99.90;;;;;;5083037;28;19928;-89
2023/10/06 12:59:15;;;;;;;;;;;21.40;99.90;;;;;;5081212;28;20255;-88
2023/10/06 13:01:42;;;;;;;;;;;21.40;99.90;;;;;;5087306;28;19944;-89
2023/10/06 13:04:13;;;;;;;;;;;21.40;99.90;;;;;;5074348;28;19978;-89
2023/10/06 13:06:39;;;;;;;;;;;21.50;99.90;;;;;;5083856;28;19992;-89
2023/10/06 13:09:08;;;;;;;;;;;21.40;99.90;;;;;;5082680;28;20232;-88
2023/10/06 13:11:36;;;;;;;;;;;21.50;99.90;;;;;;5077258;28;20230;-89
2023/10/06 13:14:03;;;;;;;;;;;21.60;99.90;;;;;;5084358;28;20009;-89
2023/10/06 13:16:30;;;;;;;;;;;21.80;99.90;;;;;;5087355;28;19920;-88
2023/10/06 13:18:57;;;;;;;;;;;21.70;99.90;;;;;;5083864;28;19980;-89
2023/10/06 13:21:24;;;;;;;;;;;21.80;99.90;;;;;;5084506;28;20022;-89
2023/10/06 13:23:51;;;;;;;;;;;22.00;99.90;;;;;;5076212;28;20229;-88
2023/10/06 13:26:20;;;;;;;;;;;22.00;99.90;;;;;;5078012;28;19920;-88
2023/10/06 13:28:48;;;;;;;;;;;22.10;99.90;;;;;;5096527;28;19996;-89
2023/10/06 13:31:15;;;;;;;;;;;22.30;99.90;;;;;;5081763;28;19944;-88
2023/10/06 13:33:41;;;;;;;;;;;22.40;99.90;;;;;;5085583;28;19920;-89
2023/10/06 13:36:09;;;;;;;;;;;22.40;99.90;;;;;;5083931;28;19948;-91
2023/10/06 13:38:35;;;;;;;;;;;22.40;99.90;;;;;;5074629;28;19927;-91
2023/10/06 13:41:04;;;;;;;;;;;22.30;99.90;;;;;;5071893;28;19950;-91
2023/10/06 13:43:31;;;;;;;;;;;22.10;99.90;;;;;;5072164;28;19921;-91
2023/10/06 13:45:59;;;;;;;;;;;22.00;99.90;;;;;;5075132;28;19943;-91
2023/10/06 13:48:28;;;;;;;;;;;22.00;99.90;;;;;;5079426;28;20368;-91
2023/10/06 13:50:58;;;;;;;;;;;21.90;99.90;;;;;;5077282;28;19981;-91
2023/10/06 13:53:26;;;;;;;;;;;22.10;99.90;;;;;;5075976;28;19920;-91
2023/10/06 13:55:54;;;;;;;;;;;22.30;99.90;;;;;;5080343;28;19920;-91
2023/10/06 13:58:23;;;;;;;;;;;22.50;99.90;;;;;;5085605;28;19966;-90
2023/10/06 14:00:50;;;;;;;;;;;22.70;99.90;;;;;;5076020;28;20221;-90
2023/10/06 14:03:19;;;;;;;;;;;22.60;99.90;;;;;;5076620;28;20229;-90
2023/10/06 14:05:51;;;;;;;;;;;22.60;99.90;;;;;;5076291;28;19928;-90
2023/10/06 14:08:18;;;;;;;;;;;22.60;99.90;;;;;;5074678;28;19921;-90
2023/10/06 14:10:45;;;;;;;;;;;22.70;99.90;;;;;;5077081;28;19927;-91
2023/10/06 14:13:16;;;;;;;;;;;22.70;99.90;;;;;;5076738;28;19931;-91
2023/10/06 14:15:44;;;;;;;;;;;22.70;99.90;;;;;;5075975;28;20161;-90
2023/10/06 14:18:13;;;;;;;;;;;22.70;99.90;;;;;;5076185;28;19984;-90
2023/10/06 14:20:43;;;;;;;;;;;22.80;99.90;;;;;;5072669;28;19933;-90
2023/10/06 14:23:11;;;;;;;;;;;22.80;99.90;;;;;;5075622;28;19927;-90
2023/10/06 14:25:38;;;;;;;;;;;22.70;99.90;;;;;;5080280;28;19955;-89
2023/10/06 14:28:07;;;;;;;;;;;22.70;99.90;;;;;;5089751;28;19924;-90
2023/10/06 14:30:35;;;;;;;;;;;22.70;99.90;;;;;;5087852;28;19983;-93
2023/10/06 14:33:15;;;;;;;;;;;22.70;99.90;;;;;;5090905;28;19939;-90
2023/10/06 14:35:53;;;;;;;;;;;22.60;99.90;;;;;;5097280;28;19920;-91
2023/10/06 14:46:36;;;;;;;;;;;22.60;99.90;;;;;;5071424;28;19924;-91
2023/10/06 14:49:05;;;;;;;;;;;22.70;99.90;;;;;;5079335;28;19928;-90
2023/10/06 14:51:34;;;;;;;;;;;22.60;99.90;;;;;;5072485;28;19943;-90
2023/10/06 14:54:01;;;;;;;;;;;22.70;99.90;;;;;;5075986;28;19959;-91
2023/10/06 14:56:28;;;;;;;;;;;22.60;99.90;;;;;;5073872;28;19921;-90
2023/10/06 14:58:55;;;;;;;;;;;22.50;99.90;;;;;;5075889;28;19935;-90
2023/10/06 15:01:22;;;;;;;;;;;22.50;99.90;;;;;;5074198;28;19963;-91
2023/10/06 15:03:49;;;;;;;;;;;22.50;99.90;;;;;;5075190;28;19928;-91
2023/10/06 15:06:15;;;;;;;;;;;22.50;99.90;;;;;;5076748;28;19956;-94
2023/10/06 15:08:44;;;;;;;;;;;22.40;99.90;;;;;;5088242;28;19943;-88
2023/10/06 15:11:11;;;;;;;;;;;22.30;99.90;;;;;;5090001;28;19920;-88
2023/10/06 15:13:39;;;;;;;;;;;22.20;99.90;;;;;;5087985;28;19921;-87
2023/10/06 15:16:06;;;;;;;;;;;22.20;99.90;;;;;;5077480;28;20233;-88
2023/10/06 15:18:33;;;;;;;;;;;22.20;99.90;;;;;;5083694;28;19924;-88
2023/10/06 15:21:00;;;;;;;;;;;22.20;99.90;;;;;;5079564;28;19921;-88
2023/10/06 15:23:27;;;;;;;;;;;22.30;99.90;;;;;;5076240;28;19927;-88
2023/10/06 15:25:56;;;;;;;;;;;22.20;99.90;;;;;;5074517;28;19984;-89
2023/10/06 15:28:24;;;;;;;;;;;22.10;99.90;;;;;;5073307;28;19921;-88
2023/10/06 15:30:52;;;;;;;;;;;22.00;99.90;;;;;;5079596;28;19920;-88
2023/10/06 15:33:22;;;;;;;;;;;21.80;99.90;;;;;;5079494;28;19927;-88
2023/10/06 15:35:49;;;;;;;;;;;21.60;99.90;;;;;;5075055;28;20256;-89
2023/10/06 15:38:19;;;;;;;;;;;21.40;99.90;;;;;;5073148;28;19920;-88
2023/10/06 15:40:46;;;;;;;;;;;21.30;99.90;;;;;;5078678;28;19928;-88
2023/10/06 15:43:15;;;;;;;;;;;21.00;99.90;;;;;;5082770;28;19920;-88
2023/10/06 15:45:42;;;;;;;;;;;20.80;99.90;;;;;;5076974;28;19920;-88
2023/10/06 15:48:09;;;;;;;;;;;20.60;99.90;;;;;;5083583;28;19976;-88
2023/10/06 15:50:36;;;;;;;;;;;20.50;99.90;;;;;;5077822;28;19924;-89
2023/10/06 15:53:02;;;;;;;;;;;20.30;99.90;;;;;;5078331;28;20259;-88
2023/10/06 15:55:33;;;;;;;;;;;20.30;99.90;;;;;;5077373;28;19927;-88
2023/10/06 15:58:00;;;;;;;;;;;20.10;99.90;;;;;;5078152;28;19944;-88
2023/10/06 16:00:29;;;;;;;;;;;20.00;99.90;;;;;;5080745;28;19920;-89
2023/10/06 16:02:57;;;;;;;;;;;19.90;99.90;;;;;;5078922;28;19984;-87
2023/10/06 16:05:25;;;;;;;;;;;19.80;99.90;;;;;;5078789;28;19983;-88
2023/10/06 16:07:52;;;;;;;;;;;19.80;99.90;;;;;;5081414;28;19958;-89
2023/10/06 16:10:24;;;;;;;;;;;19.70;99.90;;;;;;5072274;28;19980;-88
2023/10/06 16:12:50;;;;;;;;;;;19.50;99.90;;;;;;5075007;28;19929;-88
2023/10/06 16:15:18;;;;;;;;;;;19.50;99.90;;;;;;5075301;28;19992;-88
2023/10/06 16:17:46;;;;;;;;;;;19.40;99.90;;;;;;5073992;28;20141;-88
2023/10/06 16:20:16;;;;;;;;;;;19.30;99.90;;;;;;5077916;28;19944;-88
2023/10/06 16:22:43;;;;;;;;;;;19.20;99.90;;;;;;5084668;28;19928;-88
2023/10/06 16:25:12;;;;;;;;;;;19.20;99.90;;;;;;5077753;28;19928;-88
2023/10/06 16:27:39;;;;;;;;;;;19.10;99.90;;;;;;5076013;28;19921;-88
2023/10/06 16:30:07;;;;;;;;;;;19.00;99.90;;;;;;5078320;28;19920;-92
2023/10/06 16:32:33;;;;;;;;;;;18.90;99.90;;;;;;5077988;28;19927;-90
2023/10/06 16:35:02;;;;;;;;;;;18.90;99.90;;;;;;5084613;28;19984;-88
2023/10/06 16:37:30;;;;;;;;;;;18.80;99.90;;;;;;5083012;28;19928;-90
2023/10/06 16:39:57;;;;;;;;;;;18.70;99.90;;;;;;5081330;28;19984;-88
2023/10/06 16:42:24;;;;;;;;;;;18.60;99.90;;;;;;5097158;28;20255;-92
2023/10/06 16:44:52;;;;;;;;;;;18.50;99.90;;;;;;5096780;28;19927;-89
2023/10/06 16:47:18;;;;;;;;;;;18.50;99.90;;;;;;5089303;28;20136;-89
2023/10/06 16:49:45;;;;;;;;;;;18.40;99.90;;;;;;5098338;27;19924;-89
2023/10/06 16:52:13;;;;;;;;;;;18.30;99.90;;;;;;5117323;22;20192;-73
2023/10/06 16:54:43;;;;;;;;;;;18.30;99.90;;;;;;5101419;28;20230;-73
2023/10/06 16:57:09;;;;;;;;;;;18.10;99.90;;;;;;5106776;28;20151;-76
2023/10/06 16:59:37;;;;;;;;;;;18.10;99.90;;;;;;5102133;28;19926;-76
2023/10/06 17:02:03;;;;;;;;;;;18.00;99.90;;;;;;5115338;28;20132;-76
2023/10/06 17:04:30;;;;;;;;;;;17.90;99.90;;;;;;5117177;28;19986;-76
2023/10/06 17:06:56;;;;;;;;;;;17.70;99.90;;;;;;5117288;28;19920;-76
2023/10/06 17:09:31;;;;;;;;;;;17.60;99.90;;;;;;5118417;28;20002;-75
2023/10/06 17:11:59;;;;;;;;;;;17.50;99.90;;;;;;5109464;28;19988;-75
2023/10/06 17:14:25;;;;;;;;;;;17.30;99.90;;;;;;5108522;28;19927;-76
2023/10/06 17:16:52;;;;;;;;;;;17.20;99.90;;;;;;5114168;28;20124;-76
2023/10/06 17:19:19;;;;;;;;;;;17.10;99.90;;;;;;5111979;28;19943;-76
2023/10/06 17:21:46;;;;;;;;;;;17.00;99.90;;;;;;5115178;28;19991;-76
2023/10/06 17:24:13;;;;;;;;;;;16.90;99.90;;;;;;5104238;28;20004;-76
2023/10/06 17:26:42;;;;;;;;;;;16.80;99.90;;;;;;5114532;28;19939;-75
2023/10/06 17:29:10;;;;;;;;;;;16.70;99.90;;;;;;5106273;28;19920;-76
2023/10/06 17:31:36;;;;;;;;;;;16.70;99.90;;;;;;5113159;28;19920;-75
2023/10/06 17:34:04;;;;;;;;;;;16.60;99.90;;;;;;5110828;28;19920;-75
2023/10/06 17:36:31;;;;;;;;;;;16.50;99.90;;;;;;5114832;28;19927;-75
2023/10/06 17:38:58;;;;;;;;;;;16.40;99.90;;;;;;5118237;28;19983;-75
2023/10/06 17:41:24;;;;;;;;;;;16.40;99.90;;;;;;5106825;28;19943;-74
2023/10/06 17:43:55;;;;;;;;;;;16.30;99.90;;;;;;5115718;28;19920;-75
2023/10/06 17:46:22;;;;;;;;;;;16.30;99.90;;;;;;5110716;28;19919;-75
2023/10/06 17:48:50;;;;;;;;;;;16.20;99.90;;;;;;5111913;28;19924;-75
2023/10/06 17:51:19;;;;;;;;;;;16.10;99.90;;;;;;5108559;28;19920;-74
2023/10/06 17:53:46;;;;;;;;;;;16.00;99.90;;;;;;5109616;28;19926;-72
2023/10/06 17:56:12;;;;;;;;;;;16.00;99.90;;;;;;5106931;28;19959;-74
2023/10/06 17:58:39;;;;;;;;;;;15.90;99.90;;;;;;5106271;28;20018;-75
2023/10/06 18:01:08;;;;;;;;;;;15.80;99.90;;;;;;5111120;28;20108;-75
2023/10/06 18:03:35;;;;;;;;;;;15.70;99.90;;;;;;5106459;28;20200;-74
2023/10/06 18:06:02;;;;;;;;;;;15.60;99.90;;;;;;5106256;28;19951;-74
2023/10/06 18:08:29;;;;;;;;;;;15.60;99.90;;;;;;5114600;28;19924;-75
2023/10/06 18:10:55;;;;;;;;;;;15.50;99.90;;;;;;5114261;28;19920;-75
2023/10/06 18:13:23;;;;;;;;;;;15.50;99.90;;;;;;5111590;28;19963;-75
2023/10/06 18:15:51;;;;;;;;;;;15.40;99.90;;;;;;5113314;28;19957;-75
2023/10/06 18:18:19;;;;;;;;;;;15.40;99.90;;;;;;5110934;28;20231;-74
2023/10/06 18:20:46;;;;;;;;;;;15.30;99.90;;;;;;5111804;28;19983;-75
2023/10/06 18:23:13;;;;;;;;;;;15.20;99.90;;;;;;5118103;28;19927;-76
2023/10/06 18:25:40;;;;;;;;;;;15.10;99.90;;;;;;5114855;28;19939;-75
2023/10/06 18:28:07;;;;;;;;;;;15.10;99.90;;;;;;5111013;28;19980;-75
2023/10/06 18:30:35;;;;;;;;;;;15.10;99.90;;;;;;5110255;28;19966;-74
2023/10/06 18:33:02;;;;;;;;;;;15.00;99.90;;;;;;5116729;28;20210;-75
2023/10/06 18:35:30;;;;;;;;;;;15.00;99.90;;;;;;5115994;28;20120;-73
2023/10/06 18:37:57;;;;;;;;;;;14.90;99.90;;;;;;5112693;28;20473;-74
2023/10/06 18:40:24;;;;;;;;;;;14.80;99.90;;;;;;5109146;28;19924;-75
2023/10/06 18:42:51;;;;;;;;;;;14.80;99.90;;;;;;5103438;28;19926;-75
2023/10/06 18:45:18;;;;;;;;;;;14.80;99.90;;;;;;5110874;28;19959;-74
2023/10/06 18:47:45;;;;;;;;;;;14.70;99.90;;;;;;5114701;28;19924;-73
2023/10/06 18:50:17;;;;;;;;;;;14.70;99.90;;;;;;5108852;28;20162;-74
2023/10/06 18:52:46;;;;;;;;;;;14.60;99.90;;;;;;5105581;28;20255;-73
2023/10/06 18:55:13;;;;;;;;;;;14.60;99.90;;;;;;5117418;28;19942;-74
2023/10/06 18:57:39;;;;;;;;;;;14.60;99.90;;;;;;5114943;28;19956;-74
2023/10/06 19:00:09;;;;;;;;;;;14.50;99.90;;;;;;5117167;28;19998;-73
2023/10/06 19:02:36;;;;;;;;;;;14.50;99.90;;;;;;5107774;28;19920;-74
2023/10/06 19:05:03;;;;;;;;;;;14.50;99.90;;;;;;5110748;28;19920;-74
2023/10/06 19:07:29;;;;;;;;;;;14.40;99.90;;;;;;5112296;28;19921;-74
2023/10/06 19:09:58;;;;;;;;;;;14.40;99.90;;;;;;5112472;28;19919;-73
2023/10/06 19:12:30;;;;;;;;;;;14.40;99.90;;;;;;5111524;28;19924;-74
2023/10/06 19:14:57;;;;;;;;;;;14.40;99.90;;;;;;5112048;28;19979;-74
2023/10/06 19:17:23;;;;;;;;;;;14.30;99.90;;;;;;5111064;28;19920;-73
2023/10/06 19:19:51;;;;;;;;;;;14.30;99.90;;;;;;5109714;28;19924;-74